createdAt,value
2018-05-29T00:01:38.890Z,20.08
2018-05-29T00:04:07.276Z,20.01
2018-05-29T00:06:35.670Z,20.06
2018-05-29T00:09:04.059Z,20.03
2018-05-29T00:11:32.479Z,19.97
2018-05-29T00:14:00.863Z,19.88
2018-05-29T00:16:29.266Z,19.91
2018-05-29T00:18:57.650Z,19.90
2018-05-29T00:21:26.050Z,19.86
2018-05-29T00:23:54.445Z,19.75
2018-05-29T00:26:22.859Z,19.79
2018-05-29T00:28:51.242Z,19.73
2018-05-29T00:31:19.656Z,19.73
2018-05-29T00:33:48.047Z,19.67
2018-05-29T00:36:16.439Z,19.70
2018-05-29T00:38:44.840Z,19.76
2018-05-29T00:41:13.244Z,19.68
2018-05-29T00:43:41.629Z,19.68
2018-05-29T00:46:10.027Z,19.79
2018-05-29T00:48:38.410Z,19.84
2018-05-29T00:51:06.815Z,19.83
2018-05-29T00:53:35.207Z,19.84
2018-05-29T00:56:04.459Z,19.85
2018-05-29T00:58:32.979Z,19.80
2018-05-29T01:01:01.802Z,19.82
2018-05-29T01:03:30.595Z,19.85
2018-05-29T01:05:59.432Z,19.91
2018-05-29T01:08:28.581Z,19.98
2018-05-29T01:10:56.966Z,19.93
2018-05-29T01:13:26.154Z,19.91
2018-05-29T01:15:54.827Z,19.91
2018-05-29T01:18:23.228Z,19.92
2018-05-29T01:20:52.728Z,19.94
2018-05-29T01:23:21.129Z,19.92
2018-05-29T01:25:49.819Z,19.83
2018-05-29T01:28:18.315Z,19.80
2018-05-29T01:30:46.708Z,19.76
2018-05-29T01:33:15.132Z,19.55
2018-05-29T01:35:43.520Z,19.36
2018-05-29T01:38:12.754Z,19.20
2018-05-29T01:40:41.545Z,19.04
2018-05-29T01:43:10.223Z,18.86
2018-05-29T01:45:39.279Z,18.79
2018-05-29T01:48:07.720Z,18.40
2018-05-29T01:50:36.911Z,18.18
2018-05-29T01:53:05.691Z,17.98
2018-05-29T01:55:34.593Z,18.01
2018-05-29T01:58:03.455Z,18.03
2018-05-29T02:00:31.857Z,17.98
2018-05-29T02:03:00.639Z,17.94
2018-05-29T02:05:29.023Z,17.94
2018-05-29T02:07:57.427Z,17.85
2018-05-29T02:10:25.814Z,17.85
2018-05-29T02:12:54.239Z,17.84
2018-05-29T02:15:22.631Z,17.84
2018-05-29T02:17:51.047Z,17.74
2018-05-29T02:20:19.431Z,17.57
2018-05-29T02:22:47.847Z,17.47
2018-05-29T02:25:16.240Z,17.53
2018-05-29T02:27:44.648Z,17.41
2018-05-29T02:30:13.040Z,17.23
2018-05-29T02:32:41.486Z,17.17
2018-05-29T02:35:09.863Z,17.40
2018-05-29T02:37:38.279Z,17.51
2018-05-29T02:40:06.667Z,17.62
2018-05-29T02:42:35.084Z,17.48
2018-05-29T02:45:03.883Z,17.54
2018-05-29T02:47:32.292Z,17.46
2018-05-29T02:50:01.198Z,17.47
2018-05-29T02:52:29.775Z,17.37
2018-05-29T02:54:58.879Z,17.44
2018-05-29T02:57:27.306Z,17.49
2018-05-29T02:59:55.690Z,17.38
2018-05-29T03:02:24.648Z,17.45
2018-05-29T03:04:53.419Z,17.31
2018-05-29T03:07:22.204Z,17.24
2018-05-29T03:09:50.952Z,17.19
2018-05-29T03:12:19.670Z,16.96
2018-05-29T03:14:48.144Z,16.81
2018-05-29T03:17:16.567Z,16.77
2018-05-29T03:19:45.120Z,16.78
2018-05-29T03:22:13.532Z,16.83
2018-05-29T03:24:41.918Z,16.86
2018-05-29T03:27:10.327Z,16.96
2018-05-29T03:29:38.715Z,17.12
2018-05-29T03:32:07.142Z,17.16
2018-05-29T03:34:35.542Z,17.19
2018-05-29T03:37:03.952Z,17.28
2018-05-29T03:39:32.339Z,17.26
2018-05-29T03:42:00.746Z,17.20
2018-05-29T03:44:29.131Z,17.16
2018-05-29T03:46:57.538Z,17.21
2018-05-29T03:49:25.932Z,17.10
2018-05-29T03:51:54.352Z,17.16
2018-05-29T03:54:22.735Z,17.24
2018-05-29T03:56:51.137Z,17.36
2018-05-29T03:59:20.456Z,17.27
2018-05-29T04:01:50.952Z,17.43
2018-05-29T04:04:19.799Z,17.41
2018-05-29T04:06:48.830Z,17.55
2018-05-29T04:09:17.280Z,17.52
2018-05-29T04:11:46.827Z,17.57
2018-05-29T04:14:15.567Z,17.54
2018-05-29T04:16:44.817Z,17.57
2018-05-29T04:19:13.719Z,17.70
2018-05-29T04:21:42.095Z,17.88
2018-05-29T04:24:10.774Z,18.07
2018-05-29T04:26:39.178Z,18.13
2018-05-29T04:29:07.940Z,17.89
2018-05-29T04:31:36.348Z,17.87
2018-05-29T04:34:04.735Z,17.98
2018-05-29T04:36:33.123Z,18.18
2018-05-29T04:39:01.531Z,18.20
2018-05-29T04:41:29.915Z,18.36
2018-05-29T04:43:58.320Z,18.41
2018-05-29T04:46:26.722Z,18.49
2018-05-29T04:48:55.139Z,18.44
2018-05-29T04:51:23.532Z,18.42
2018-05-29T04:53:51.927Z,18.47
2018-05-29T04:56:20.324Z,18.59
2018-05-29T04:58:48.735Z,18.67
2018-05-29T05:01:17.138Z,18.81
2018-05-29T05:03:45.699Z,19.10
2018-05-29T05:06:14.539Z,19.33
2018-05-29T05:08:43.798Z,19.62
2018-05-29T05:11:13.671Z,19.59
2018-05-29T05:13:42.184Z,19.88
2018-05-29T05:16:11.458Z,20.16
2018-05-29T05:18:39.931Z,20.27
2018-05-29T05:21:08.791Z,20.51
2018-05-29T05:23:37.418Z,20.84
2018-05-29T05:26:05.794Z,21.17
2018-05-29T05:28:34.306Z,21.45
2018-05-29T05:31:02.808Z,21.70
2018-05-29T05:33:31.327Z,22.00
2018-05-29T05:35:59.852Z,22.17
2018-05-29T05:38:28.267Z,22.47
2018-05-29T05:40:56.779Z,22.73
2018-05-29T05:43:25.191Z,22.93
2018-05-29T05:45:54.268Z,23.03
2018-05-29T05:48:22.688Z,23.30
2018-05-29T05:50:51.155Z,23.63
2018-05-29T05:53:19.564Z,23.57
2018-05-29T05:55:48.283Z,23.77
2018-05-29T05:58:16.694Z,24.66
2018-05-29T06:00:45.091Z,25.69
2018-05-29T06:03:13.503Z,26.00
2018-05-29T06:05:41.910Z,25.88
2018-05-29T06:08:10.584Z,26.66
2018-05-29T06:10:39.053Z,27.47
2018-05-29T06:13:07.535Z,27.77
2018-05-29T06:15:36.439Z,28.45
2018-05-29T06:18:04.843Z,28.43
2018-05-29T06:20:33.696Z,28.71
2018-05-29T06:23:02.108Z,29.30
2018-05-29T06:25:30.707Z,29.74
2018-05-29T06:27:59.367Z,30.16
2018-05-29T06:30:27.764Z,30.36
2018-05-29T06:32:56.431Z,30.82
2018-05-29T06:35:25.147Z,30.88
2018-05-29T06:37:53.555Z,31.78
2018-05-29T06:40:22.387Z,31.76
2018-05-29T06:42:50.878Z,32.08
2018-05-29T06:45:19.496Z,31.55
2018-05-29T06:47:48.522Z,32.17
2018-05-29T06:50:17.019Z,31.69
2018-05-29T06:52:45.563Z,30.98
2018-05-29T06:55:13.953Z,30.12
2018-05-29T06:57:42.369Z,28.55
2018-05-29T07:00:11.215Z,28.68
2018-05-29T07:02:39.627Z,29.79
2018-05-29T07:05:08.519Z,30.77
2018-05-29T07:07:37.238Z,31.24
2018-05-29T07:10:06.724Z,32.24
2018-05-29T07:12:35.972Z,31.72
2018-05-29T07:15:04.727Z,32.62
2018-05-29T07:17:33.141Z,33.56
2018-05-29T07:20:01.519Z,33.24
2018-05-29T07:22:29.926Z,33.99
2018-05-29T07:24:58.311Z,34.25
2018-05-29T07:27:26.723Z,33.82
2018-05-29T07:29:55.117Z,34.15
2018-05-29T07:32:23.507Z,35.24
2018-05-29T07:34:51.926Z,35.41
2018-05-29T07:37:20.311Z,35.96
2018-05-29T07:39:48.783Z,35.85
2018-05-29T07:42:17.115Z,36.08
2018-05-29T07:44:45.543Z,35.86
2018-05-29T07:47:13.934Z,35.43
2018-05-29T07:49:42.330Z,35.37
2018-05-29T07:52:10.733Z,35.94
2018-05-29T07:54:39.140Z,35.68
2018-05-29T07:57:07.543Z,35.71
2018-05-29T07:59:35.946Z,33.96
2018-05-29T08:02:04.792Z,34.58
2018-05-29T08:04:33.351Z,33.93
2018-05-29T08:07:02.543Z,34.09
2018-05-29T08:09:30.954Z,33.80
2018-05-29T08:11:59.658Z,32.41
2018-05-29T08:14:28.071Z,33.15
2018-05-29T08:16:56.462Z,32.98
2018-05-29T08:19:25.176Z,32.86
2018-05-29T08:21:53.569Z,34.17
2018-05-29T08:24:22.136Z,35.72
2018-05-29T08:26:50.519Z,37.84
2018-05-29T08:29:18.935Z,38.80
2018-05-29T08:31:47.327Z,37.47
2018-05-29T08:34:15.767Z,37.27
2018-05-29T08:36:44.171Z,36.53
2018-05-29T08:39:12.587Z,37.55
2018-05-29T08:41:41.178Z,37.28
2018-05-29T08:44:09.591Z,37.91
2018-05-29T08:46:37.992Z,39.01
2018-05-29T08:49:06.421Z,38.18
2018-05-29T08:51:34.823Z,38.63
2018-05-29T08:54:03.244Z,38.90
2018-05-29T08:56:31.640Z,39.33
2018-05-29T08:59:00.476Z,39.52
2018-05-29T09:01:28.870Z,40.33
2018-05-29T09:03:57.324Z,41.81
2018-05-29T09:06:25.671Z,41.58
2018-05-29T09:08:54.083Z,39.70
2018-05-29T09:11:22.470Z,38.15
2018-05-29T09:13:51.207Z,38.34
2018-05-29T09:16:19.591Z,38.01
2018-05-29T09:18:48.111Z,39.19
2018-05-29T09:21:16.503Z,39.19
2018-05-29T09:23:44.918Z,40.42
2018-05-29T09:26:13.307Z,39.07
2018-05-29T09:28:41.727Z,41.02
2018-05-29T09:31:10.111Z,41.56
2018-05-29T09:33:38.536Z,39.74
2018-05-29T09:36:06.924Z,41.24
2018-05-29T09:38:35.336Z,40.99
2018-05-29T09:41:03.727Z,42.33
2018-05-29T09:43:32.168Z,40.77
2018-05-29T09:46:00.608Z,41.94
2018-05-29T09:48:28.999Z,41.64
2018-05-29T09:50:57.389Z,39.68
2018-05-29T09:53:25.816Z,38.83
2018-05-29T09:55:54.287Z,38.10
2018-05-29T09:58:22.712Z,38.70
2018-05-29T10:00:51.107Z,39.48
2018-05-29T10:03:19.531Z,37.77
2018-05-29T10:05:47.987Z,36.12
2018-05-29T10:08:16.347Z,34.95
2018-05-29T10:10:44.753Z,33.49
2018-05-29T10:13:13.164Z,32.67
2018-05-29T10:15:41.731Z,32.13
2018-05-29T10:18:10.142Z,32.34
2018-05-29T10:20:38.539Z,33.70
2018-05-29T10:23:07.159Z,37.43
2018-05-29T10:25:35.576Z,38.57
2018-05-29T10:28:04.163Z,39.79
2018-05-29T10:30:32.623Z,38.86
2018-05-29T10:33:01.023Z,35.54
2018-05-29T10:35:30.282Z,34.39
2018-05-29T10:37:58.676Z,34.17
2018-05-29T10:40:27.095Z,33.25
2018-05-29T10:42:55.483Z,33.78
2018-05-29T10:45:24.047Z,33.26
2018-05-29T10:47:52.507Z,33.12
2018-05-29T10:50:21.024Z,32.64
2018-05-29T10:52:49.424Z,33.36
2018-05-29T10:55:17.844Z,32.77
2018-05-29T10:57:46.238Z,32.47
2018-05-29T11:00:14.648Z,33.76
2018-05-29T11:02:43.040Z,34.53
2018-05-29T11:05:11.452Z,34.79
2018-05-29T11:07:39.839Z,35.17
2018-05-29T11:10:08.255Z,35.12
2018-05-29T11:12:36.640Z,34.53
2018-05-29T11:15:05.274Z,33.29
2018-05-29T11:17:33.663Z,32.37
2018-05-29T11:20:02.088Z,31.62
2018-05-29T11:22:30.743Z,30.99
2018-05-29T11:24:59.250Z,30.51
2018-05-29T11:27:27.636Z,29.22
2018-05-29T11:29:56.052Z,28.69
2018-05-29T11:32:24.452Z,28.21
2018-05-29T11:34:52.868Z,27.70
2018-05-29T11:37:21.251Z,27.48
2018-05-29T11:39:49.667Z,27.29
2018-05-29T11:42:18.091Z,26.67
2018-05-29T11:44:46.512Z,25.60
2018-05-29T11:47:15.737Z,24.30
2018-05-29T11:49:44.547Z,22.37
2018-05-29T11:52:12.935Z,21.76
2018-05-29T11:54:41.634Z,21.51
2018-05-29T11:57:10.012Z,20.97
2018-05-29T11:59:38.412Z,19.53
2018-05-29T12:02:06.791Z,19.27
2018-05-29T12:04:35.195Z,19.50
2018-05-29T12:07:03.589Z,19.76
2018-05-29T12:09:32.026Z,19.72
2018-05-29T12:12:13.331Z,19.63
2018-05-29T12:14:42.267Z,19.66
2018-05-29T12:17:11.119Z,19.69
2018-05-29T12:19:40.442Z,19.93
2018-05-29T12:22:08.998Z,19.93
2018-05-29T12:24:37.651Z,20.41
2018-05-29T12:27:06.903Z,20.73
2018-05-29T12:29:35.928Z,21.16
2018-05-29T12:32:05.834Z,21.25
2018-05-29T12:34:34.240Z,21.54
2018-05-29T12:37:02.828Z,22.14
2018-05-29T12:39:31.231Z,21.45
2018-05-29T12:42:00.471Z,21.16
2018-05-29T12:44:29.711Z,21.14
2018-05-29T12:46:58.088Z,21.14
2018-05-29T12:49:26.491Z,21.05
2018-05-29T12:51:54.874Z,21.09
2018-05-29T12:54:23.270Z,21.26
2018-05-29T12:56:51.655Z,21.30
2018-05-29T12:59:20.064Z,21.20
2018-05-29T13:01:48.444Z,21.75
2018-05-29T13:04:16.839Z,22.08
2018-05-29T13:06:45.227Z,22.70
2018-05-29T13:09:13.714Z,23.47
2018-05-29T13:11:42.629Z,23.53
2018-05-29T13:14:11.048Z,23.88
2018-05-29T13:16:39.725Z,24.24
2018-05-29T13:19:08.075Z,24.21
2018-05-29T13:21:36.923Z,24.43
2018-05-29T13:24:05.327Z,24.63
2018-05-29T13:26:33.719Z,26.06
2018-05-29T13:29:02.141Z,28.15
2018-05-29T13:31:30.514Z,30.53
2018-05-29T13:33:58.917Z,31.79
2018-05-29T13:36:27.297Z,34.06
2018-05-29T13:38:55.689Z,34.68
2018-05-29T13:41:24.090Z,34.83
2018-05-29T13:43:52.494Z,33.87
2018-05-29T13:46:20.874Z,31.39
2018-05-29T13:48:49.271Z,29.74
2018-05-29T13:51:17.672Z,28.15
2018-05-29T13:53:46.061Z,27.40
2018-05-29T13:56:14.478Z,27.21
2018-05-29T13:58:42.854Z,26.42
2018-05-29T14:01:11.275Z,25.76
2018-05-29T14:03:39.666Z,24.90
2018-05-29T14:06:08.067Z,24.47
2018-05-29T14:08:36.459Z,24.15
2018-05-29T14:11:04.879Z,24.14
2018-05-29T14:13:34.386Z,24.44
2018-05-29T14:16:03.029Z,24.08
2018-05-29T14:18:31.419Z,24.29
2018-05-29T14:20:59.891Z,24.35
2018-05-29T14:23:28.271Z,24.64
2018-05-29T14:25:56.683Z,24.76
2018-05-29T14:28:25.297Z,24.45
2018-05-29T14:30:53.707Z,24.25
2018-05-29T14:33:22.101Z,24.71
2018-05-29T14:35:50.794Z,25.00
2018-05-29T14:38:19.170Z,24.85
2018-05-29T14:40:47.745Z,24.79
2018-05-29T14:43:16.141Z,24.74
2018-05-29T14:45:45.359Z,24.83
2018-05-29T14:48:13.751Z,24.95
2018-05-29T14:50:42.362Z,24.27
2018-05-29T14:53:11.623Z,23.73
2018-05-29T14:55:40.627Z,23.50
2018-05-29T14:58:09.019Z,23.85
2018-05-29T15:00:37.759Z,24.46
2018-05-29T15:03:07.008Z,24.97
2018-05-29T15:05:35.416Z,25.28
2018-05-29T15:08:03.807Z,24.99
2018-05-29T15:10:32.215Z,24.99
2018-05-29T15:13:00.627Z,24.89
2018-05-29T15:15:29.023Z,25.01
2018-05-29T15:17:57.495Z,24.71
2018-05-29T15:20:27.628Z,24.99
2018-05-29T15:22:56.015Z,24.92
2018-05-29T15:25:24.522Z,24.28
2018-05-29T15:27:52.912Z,24.33
2018-05-29T15:30:21.332Z,24.29
2018-05-29T15:32:49.949Z,24.08
2018-05-29T15:35:18.360Z,24.43
2018-05-29T15:37:46.859Z,24.24
2018-05-29T15:40:15.344Z,24.51
2018-05-29T15:42:43.730Z,24.66
2018-05-29T15:45:12.139Z,25.13
2018-05-29T15:47:40.782Z,24.56
2018-05-29T15:50:09.186Z,24.71
2018-05-29T15:52:37.576Z,24.88
2018-05-29T15:55:05.986Z,25.00
2018-05-29T15:57:34.363Z,25.01
2018-05-29T16:00:02.812Z,25.20
2018-05-29T16:02:31.195Z,24.91
2018-05-29T16:04:59.607Z,24.64
2018-05-29T16:07:28.175Z,24.59
2018-05-29T16:09:56.571Z,24.21
2018-05-29T16:12:24.955Z,24.63
2018-05-29T16:14:53.361Z,24.73
2018-05-29T16:17:21.747Z,25.01
2018-05-29T16:19:50.154Z,24.96
2018-05-29T16:22:18.518Z,25.01
2018-05-29T16:24:46.923Z,25.06
2018-05-29T16:27:15.315Z,24.69
2018-05-29T16:29:44.035Z,24.64
2018-05-29T16:32:12.471Z,24.49
2018-05-29T16:34:41.035Z,24.28
2018-05-29T16:37:09.351Z,23.87
2018-05-29T16:39:38.068Z,23.54
2018-05-29T16:42:06.968Z,23.31
2018-05-29T16:44:35.366Z,23.48
2018-05-29T16:47:03.748Z,23.69
2018-05-29T16:49:32.121Z,23.46
2018-05-29T16:52:00.523Z,23.33
2018-05-29T16:54:29.015Z,23.23
2018-05-29T16:56:57.923Z,23.08
2018-05-29T16:59:26.299Z,23.33
2018-05-29T17:01:54.703Z,23.31
2018-05-29T17:04:24.954Z,23.14
2018-05-29T17:06:53.344Z,23.64
2018-05-29T17:09:21.738Z,24.04
2018-05-29T17:11:50.140Z,23.98
2018-05-29T17:14:18.710Z,24.04
2018-05-29T17:16:47.113Z,23.95
2018-05-29T17:19:15.675Z,23.96
2018-05-29T17:21:44.080Z,23.81
2018-05-29T17:24:13.299Z,23.83
2018-05-29T17:26:41.718Z,23.70
2018-05-29T17:29:10.091Z,23.45
2018-05-29T17:31:38.624Z,23.26
2018-05-29T17:34:07.012Z,23.26
2018-05-29T17:36:35.552Z,23.58
2018-05-29T17:39:03.931Z,23.22
2018-05-29T17:41:32.330Z,22.77
2018-05-29T17:44:00.704Z,22.69
2018-05-29T17:46:29.615Z,23.01
2018-05-29T17:48:58.003Z,22.93
2018-05-29T17:51:26.491Z,22.99
2018-05-29T17:53:56.400Z,22.81
2018-05-29T17:56:24.860Z,22.98
2018-05-29T17:58:53.435Z,23.01
2018-05-29T18:01:21.854Z,22.97
2018-05-29T18:03:50.356Z,22.91
2018-05-29T18:06:18.760Z,22.52
2018-05-29T18:08:47.139Z,22.18
2018-05-29T18:11:15.768Z,22.13
2018-05-29T18:13:44.347Z,22.14
2018-05-29T18:16:12.779Z,22.29
2018-05-29T18:18:41.316Z,22.26
2018-05-29T18:21:09.692Z,22.18
2018-05-29T18:23:38.067Z,22.21
2018-05-29T18:26:06.468Z,22.10
2018-05-29T18:28:34.847Z,22.06
2018-05-29T18:31:03.258Z,21.96
2018-05-29T18:33:31.636Z,21.84
2018-05-29T18:36:00.031Z,21.94
2018-05-29T18:38:28.444Z,21.73
2018-05-29T18:40:57.099Z,21.65
2018-05-29T18:43:25.480Z,21.58
2018-05-29T18:45:53.921Z,21.48
2018-05-29T18:48:23.022Z,21.47
2018-05-29T18:50:51.507Z,21.41
2018-05-29T18:53:20.003Z,21.38
2018-05-29T18:55:48.521Z,21.24
2018-05-29T18:58:17.024Z,21.23
2018-05-29T19:00:45.424Z,21.01
2018-05-29T19:03:13.853Z,20.86
2018-05-29T19:05:42.416Z,20.84
2018-05-29T19:08:10.892Z,20.68
2018-05-29T19:10:39.539Z,20.48
2018-05-29T19:13:08.555Z,20.17
2018-05-29T19:15:37.016Z,19.93
2018-05-29T19:18:05.870Z,19.78
2018-05-29T19:20:34.492Z,19.71
2018-05-29T19:23:02.901Z,19.51
2018-05-29T19:25:31.354Z,19.46
2018-05-29T19:27:59.755Z,19.49
2018-05-29T19:30:28.180Z,19.52
2018-05-29T19:32:56.909Z,19.44
2018-05-29T19:35:25.319Z,19.33
2018-05-29T19:37:53.724Z,19.46
2018-05-29T19:40:22.124Z,19.60
2018-05-29T19:42:50.531Z,19.71
2018-05-29T19:45:19.056Z,19.84
2018-05-29T19:47:47.676Z,19.90
2018-05-29T19:50:16.265Z,19.96
2018-05-29T19:52:45.082Z,19.98
2018-05-29T19:55:13.476Z,20.11
2018-05-29T19:57:42.227Z,20.07
2018-05-29T20:00:11.339Z,19.97
2018-05-29T20:02:42.599Z,20.02
2018-05-29T20:05:12.390Z,19.96
2018-05-29T20:07:41.152Z,20.05
2018-05-29T20:10:09.535Z,20.13
2018-05-29T20:12:37.934Z,20.21
2018-05-29T20:15:06.324Z,20.40
2018-05-29T20:17:35.113Z,20.35
2018-05-29T20:20:03.600Z,20.38
2018-05-29T20:22:31.959Z,20.40
2018-05-29T20:25:00.355Z,20.41
2018-05-29T20:27:29.176Z,20.43
2018-05-29T20:29:57.939Z,20.40
2018-05-29T20:32:26.344Z,20.46
2018-05-29T20:34:54.736Z,20.42
2018-05-29T20:37:23.787Z,20.39
2018-05-29T20:39:52.167Z,20.36
2018-05-29T20:42:20.571Z,20.31
2018-05-29T20:44:48.959Z,20.25
2018-05-29T20:47:17.364Z,20.14
2018-05-29T20:49:45.743Z,20.05
2018-05-29T20:52:14.460Z,20.05
2018-05-29T20:54:42.827Z,20.02
2018-05-29T20:57:11.222Z,20.00
2018-05-29T20:59:39.594Z,20.00
2018-05-29T21:02:08.323Z,20.08
2018-05-29T21:04:36.687Z,20.11
2018-05-29T21:07:05.079Z,19.99
2018-05-29T21:09:33.460Z,20.04
2018-05-29T21:12:01.854Z,19.99
2018-05-29T21:14:30.224Z,19.97
2018-05-29T21:16:58.992Z,19.92
2018-05-29T21:19:27.747Z,19.78
2018-05-29T21:21:57.920Z,19.85
2018-05-29T21:24:26.299Z,19.89
2018-05-29T21:26:54.703Z,19.90
2018-05-29T21:29:23.579Z,19.83
2018-05-29T21:31:52.312Z,19.74
2018-05-29T21:34:21.527Z,19.69
2018-05-29T21:36:50.285Z,19.72
2018-05-29T21:39:19.363Z,19.82
2018-05-29T21:41:47.766Z,19.75
2018-05-29T21:44:16.914Z,19.60
2018-05-29T21:46:45.572Z,19.60
2018-05-29T21:49:14.231Z,19.55
2018-05-29T21:51:43.075Z,19.58
2018-05-29T21:54:11.456Z,19.41
2018-05-29T21:56:39.955Z,19.39
2018-05-29T21:59:08.847Z,19.46
2018-05-29T22:01:37.244Z,19.44
2018-05-29T22:04:05.629Z,19.34
2018-05-29T22:06:34.015Z,19.28
2018-05-29T22:09:02.397Z,19.24
2018-05-29T22:11:31.008Z,19.17
2018-05-29T22:13:59.648Z,19.11
2018-05-29T22:16:28.471Z,19.05
2018-05-29T22:18:56.847Z,18.98
2018-05-29T22:21:25.260Z,18.95
2018-05-29T22:23:53.627Z,18.76
2018-05-29T22:26:22.078Z,18.59
2018-05-29T22:28:50.412Z,18.50
2018-05-29T22:31:18.815Z,18.35
2018-05-29T22:33:47.208Z,18.22
2018-05-29T22:36:15.599Z,18.17
2018-05-29T22:38:43.971Z,18.10
2018-05-29T22:41:12.359Z,18.05
2018-05-29T22:43:40.731Z,17.99
2018-05-29T22:46:09.103Z,17.93
2018-05-29T22:48:37.508Z,17.82
2018-05-29T22:51:05.887Z,17.79
2018-05-29T22:53:34.311Z,17.68
2018-05-29T22:56:02.691Z,17.57
2018-05-29T22:58:31.083Z,17.41
2018-05-29T23:00:59.468Z,17.30
2018-05-29T23:03:27.867Z,17.28
2018-05-29T23:05:56.251Z,17.30
2018-05-29T23:08:24.655Z,17.24
2018-05-29T23:10:53.044Z,17.17
2018-05-29T23:13:21.446Z,17.18
2018-05-29T23:15:49.823Z,17.11
2018-05-29T23:18:18.227Z,17.01
2018-05-29T23:20:46.611Z,16.95
2018-05-29T23:23:15.231Z,16.99
2018-05-29T23:25:43.604Z,16.88
2018-05-29T23:28:12.011Z,16.87
2018-05-29T23:30:41.319Z,16.83
2018-05-29T23:33:09.711Z,16.82
2018-05-29T23:35:38.121Z,16.73
2018-05-29T23:38:06.515Z,16.76
2018-05-29T23:40:34.891Z,16.64
2018-05-29T23:43:03.286Z,16.71
2018-05-29T23:45:31.671Z,16.58
2018-05-29T23:48:00.103Z,16.62
2018-05-29T23:50:28.486Z,16.50
2018-05-29T23:52:57.095Z,16.28
2018-05-29T23:55:26.087Z,16.21
2018-05-29T23:57:54.700Z,16.07
